sensor_id;sensor_type;location;lat;lon;timestamp;pressure;altitude;pressure_sealevel;temperature;humidity
68891;BME280;55932;48.702;8.884;2023-01-30T00:01:16;96730;;;-3.8;76.5
68891;BME280;55932;48.702;8.884;2023-01-30T00:03:31;96720;;;-3.8;76.5
68891;BME280;55932;48.702;8.884;2023-01-30T00:06:03;96720;;;-3.8;76.5
68891;BME280;55932;48.702;8.884;2023-01-30T00:08:33;96710;;;-3.7;76.5
68891;BME280;55932;48.702;8.884;2023-01-30T00:11:04;96710;;;-3.6;76.5
68891;BME280;55932;48.702;8.884;2023-01-30T00:13:35;96690;;;-3.6;76.5
68891;BME280;55932;48.702;8.884;2023-01-30T00:16:05;96680;;;-3.7;76.5
68891;BME280;55932;48.702;8.884;2023-01-30T00:18:36;96680;;;-3.7;76.5
68891;BME280;55932;48.702;8.884;2023-01-30T00:21:07;96680;;;-3.7;76.5
68891;BME280;55932;48.702;8.884;2023-01-30T00:23:37;96670;;;-3.8;76.5
68891;BME280;55932;48.702;8.884;2023-01-30T00:31:10;96670;;;-3.7;76.5
68891;BME280;55932;48.702;8.884;2023-01-30T00:36:17;96670;;;-3.8;77
68891;BME280;55932;48.702;8.884;2023-01-30T00:38:48;96660;;;-3.8;77
68891;BME280;55932;48.702;8.884;2023-01-30T00:41:19;96640;;;-3.8;77
68891;BME280;55932;48.702;8.884;2023-01-30T00:43:44;96640;;;-3.8;77
68891;BME280;55932;48.702;8.884;2023-01-30T00:48:58;96650;;;-3.8;77
68891;BME280;55932;48.702;8.884;2023-01-30T00:51:27;96650;;;-3.7;77
68891;BME280;55932;48.702;8.884;2023-01-30T00:53:51;96660;;;-3.8;77
68891;BME280;55932;48.702;8.884;2023-01-30T00:56:29;96660;;;-3.8;77
68891;BME280;55932;48.702;8.884;2023-01-30T00:59:00;96670;;;-3.8;77
68891;BME280;55932;48.702;8.884;2023-01-30T01:06:49;96700;;;-3.9;77
68891;BME280;55932;48.702;8.884;2023-01-30T01:09:03;96720;;;-4;77
68891;BME280;55932;48.702;8.884;2023-01-30T01:11:33;96730;;;-4.1;77.5
68891;BME280;55932;48.702;8.884;2023-01-30T01:13:59;96740;;;-4.2;77.5
68891;BME280;55932;48.702;8.884;2023-01-30T01:16:29;96750;;;-4.2;77.5
68891;BME280;55932;48.702;8.884;2023-01-30T01:21:22;96730;;;-4.3;77
68891;BME280;55932;48.702;8.884;2023-01-30T01:23:55;96740;;;-4.3;77
68891;BME280;55932;48.702;8.884;2023-01-30T01:31:26;96750;;;-4.5;76.5
68891;BME280;55932;48.702;8.884;2023-01-30T01:33:57;96740;;;-4.5;76.5
68891;BME280;55932;48.702;8.884;2023-01-30T01:36:28;96740;;;-4.6;76.5
68891;BME280;55932;48.702;8.884;2023-01-30T01:39:05;96750;;;-4.8;76.5
68891;BME280;55932;48.702;8.884;2023-01-30T01:41:36;96740;;;-4.8;76.5
68891;BME280;55932;48.702;8.884;2023-01-30T01:44:08;96730;;;-4.7;76.5
68891;BME280;55932;48.702;8.884;2023-01-30T01:46:41;96730;;;-4.7;76
68891;BME280;55932;48.702;8.884;2023-01-30T01:49:03;96730;;;-4.8;76
68891;BME280;55932;48.702;8.884;2023-01-30T01:51:34;96720;;;-4.8;76
68891;BME280;55932;48.702;8.884;2023-01-30T01:59:07;96730;;;-4.8;77
68891;BME280;55932;48.702;8.884;2023-01-30T02:01:36;96710;;;-4.8;77
68891;BME280;55932;48.702;8.884;2023-01-30T02:04:06;96710;;;-4.8;77
68891;BME280;55932;48.702;8.884;2023-01-30T02:06:37;96720;;;-4.8;77
68891;BME280;55932;48.702;8.884;2023-01-30T02:09:14;96740;;;-4.8;77
68891;BME280;55932;48.702;8.884;2023-01-30T02:11:46;96740;;;-4.8;77
68891;BME280;55932;48.702;8.884;2023-01-30T02:14:16;96740;;;-4.9;77
68891;BME280;55932;48.702;8.884;2023-01-30T02:36:51;96710;;;-5;77
68891;BME280;55932;48.702;8.884;2023-01-30T02:41:57;96750;;;-4.8;77
68891;BME280;55932;48.702;8.884;2023-01-30T02:44:27;96730;;;-4.9;77
68891;BME280;55932;48.702;8.884;2023-01-30T02:47:01;96690;;;-4.9;77
68891;BME280;55932;48.702;8.884;2023-01-30T02:49:22;96680;;;-4.8;77
68891;BME280;55932;48.702;8.884;2023-01-30T02:56:55;96720;;;-4.3;76.5
68891;BME280;55932;48.702;8.884;2023-01-30T02:59:26;96710;;;-4.4;77
68891;BME280;55932;48.702;8.884;2023-01-30T03:04:29;96720;;;-4.6;77
68891;BME280;55932;48.702;8.884;2023-01-30T03:07:09;96710;;;-4.7;77
68891;BME280;55932;48.702;8.884;2023-01-30T03:09:36;96690;;;-4.8;77
68891;BME280;55932;48.702;8.884;2023-01-30T03:12:09;96680;;;-4.9;77.5
68891;BME280;55932;48.702;8.884;2023-01-30T03:14:29;96680;;;-4.7;77.5
68891;BME280;55932;48.702;8.884;2023-01-30T03:16:59;96670;;;-4.4;77
68891;BME280;55932;48.702;8.884;2023-01-30T03:24:31;96610;;;-3.9;77
68891;BME280;55932;48.702;8.884;2023-01-30T03:27:04;96600;;;-3.8;77
68891;BME280;55932;48.702;8.884;2023-01-30T03:29:33;96590;;;-3.7;77
68891;BME280;55932;48.702;8.884;2023-01-30T03:32:03;96560;;;-3.6;77
68891;BME280;55932;48.702;8.884;2023-01-30T03:34:41;96550;;;-3.5;77
68891;BME280;55932;48.702;8.884;2023-01-30T03:37:12;96540;;;-3.4;77.5
68891;BME280;55932;48.702;8.884;2023-01-30T03:42:07;96570;;;-3;77
68891;BME280;55932;48.702;8.884;2023-01-30T03:44:37;96570;;;-2.8;77
68891;BME280;55932;48.702;8.884;2023-01-30T03:52:10;96610;;;-2.6;77.5
68891;BME280;55932;48.702;8.884;2023-01-30T03:54:41;96600;;;-2.5;77
68891;BME280;55932;48.702;8.884;2023-01-30T03:57:11;96600;;;-2.4;77
68891;BME280;55932;48.702;8.884;2023-01-30T03:59:49;96610;;;-2.4;77.5
68891;BME280;55932;48.702;8.884;2023-01-30T04:02:20;96600;;;-2.2;77
68891;BME280;55932;48.702;8.884;2023-01-30T04:07:15;96590;;;-2.2;77.5
68891;BME280;55932;48.702;8.884;2023-01-30T04:09:46;96590;;;-2.2;77.5
68891;BME280;55932;48.702;8.884;2023-01-30T04:12:17;96580;;;-2.3;77.5
68891;BME280;55932;48.702;8.884;2023-01-30T04:22:20;96570;;;-2.5;77.5
68891;BME280;55932;48.702;8.884;2023-01-30T04:24:50;96580;;;-2.5;77.5
68891;BME280;55932;48.702;8.884;2023-01-30T04:27:48;96580;;;-2.5;77.5
68891;BME280;55932;48.702;8.884;2023-01-30T04:30:05;96590;;;-2.4;78
68891;BME280;55932;48.702;8.884;2023-01-30T04:34:59;96590;;;-2.4;77.5
68891;BME280;55932;48.702;8.884;2023-01-30T04:37:30;96590;;;-2.3;77.5
68891;BME280;55932;48.702;8.884;2023-01-30T04:40:01;96580;;;-2.1;77.5
68891;BME280;55932;48.702;8.884;2023-01-30T04:42:25;96590;;;-2;77.5
68891;BME280;55932;48.702;8.884;2023-01-30T04:49:58;96590;;;-1.8;77.5
68891;BME280;55932;48.702;8.884;2023-01-30T04:54:59;96590;;;-2;77.5
68891;BME280;55932;48.702;8.884;2023-01-30T04:57:32;96590;;;-1.8;77.5
68891;BME280;55932;48.702;8.884;2023-01-30T05:00:13;96580;;;-1.8;77.5
68891;BME280;55932;48.702;8.884;2023-01-30T05:02:38;96570;;;-1.7;77.5
68891;BME280;55932;48.702;8.884;2023-01-30T05:05:09;96580;;;-1.7;77.5
68891;BME280;55932;48.702;8.884;2023-01-30T05:07:32;96590;;;-1.7;77.5
68891;BME280;55932;48.702;8.884;2023-01-30T05:10:03;96580;;;-1.8;77.5
68891;BME280;55932;48.702;8.884;2023-01-30T05:20:08;96550;;;-1.9;77.5
68891;BME280;55932;48.702;8.884;2023-01-30T05:22:37;96540;;;-1.9;77.5
68891;BME280;55932;48.702;8.884;2023-01-30T05:25:08;96550;;;-1.9;77.5
68891;BME280;55932;48.702;8.884;2023-01-30T05:30:16;96540;;;-1.7;77.5
68891;BME280;55932;48.702;8.884;2023-01-30T05:32:47;96540;;;-1.7;77.5
68891;BME280;55932;48.702;8.884;2023-01-30T05:35:17;96540;;;-1.7;77.5
68891;BME280;55932;48.702;8.884;2023-01-30T05:37:41;96540;;;-1.7;77.5
68891;BME280;55932;48.702;8.884;2023-01-30T05:40:12;96540;;;-1.7;77.5
68891;BME280;55932;48.702;8.884;2023-01-30T05:47:48;96540;;;-2;77.5
68891;BME280;55932;48.702;8.884;2023-01-30T05:52:46;96530;;;-1.9;77.5
68891;BME280;55932;48.702;8.884;2023-01-30T05:55:17;96540;;;-1.9;77.5
68891;BME280;55932;48.702;8.884;2023-01-30T05:58:01;96540;;;-1.9;77.5
68891;BME280;55932;48.702;8.884;2023-01-30T06:00:31;96540;;;-1.8;77.5
68891;BME280;55932;48.702;8.884;2023-01-30T06:02:55;96530;;;-1.6;77.5
68891;BME280;55932;48.702;8.884;2023-01-30T06:05:26;96530;;;-1.6;77.5
68891;BME280;55932;48.702;8.884;2023-01-30T06:07:56;96530;;;-1.7;77.5
68891;BME280;55932;48.702;8.884;2023-01-30T06:10:34;96530;;;-1.7;77.5
68891;BME280;55932;48.702;8.884;2023-01-30T06:13:07;96530;;;-1.8;77.5
68891;BME280;55932;48.702;8.884;2023-01-30T06:18:13;96520;;;-1.7;77.5
68891;BME280;55932;48.702;8.884;2023-01-30T06:23:07;96520;;;-1.4;77.5
68891;BME280;55932;48.702;8.884;2023-01-30T06:25:37;96510;;;-1.4;77.5
68891;BME280;55932;48.702;8.884;2023-01-30T06:28:07;96520;;;-1.4;77.5
68891;BME280;55932;48.702;8.884;2023-01-30T06:33:01;96530;;;-1.6;77.5
68891;BME280;55932;48.702;8.884;2023-01-30T06:35:33;96520;;;-1.6;77.5
68891;BME280;55932;48.702;8.884;2023-01-30T06:38:10;96520;;;-1.6;77.5
68891;BME280;55932;48.702;8.884;2023-01-30T06:40:43;96520;;;-1.6;77.5
68891;BME280;55932;48.702;8.884;2023-01-30T06:43:19;96520;;;-1.5;77.5
68891;BME280;55932;48.702;8.884;2023-01-30T06:45:57;96510;;;-1.6;77.5
68891;BME280;55932;48.702;8.884;2023-01-30T06:50:36;96510;;;-1.5;77.5
68891;BME280;55932;48.702;8.884;2023-01-30T06:53:07;96520;;;-1.5;77.5
68891;BME280;55932;48.702;8.884;2023-01-30T06:58:04;96500;;;-1.6;77.5
68891;BME280;55932;48.702;8.884;2023-01-30T07:00:33;96500;;;-1.6;77.5
68891;BME280;55932;48.702;8.884;2023-01-30T07:10:36;96510;;;-1.4;77.5
68891;BME280;55932;48.702;8.884;2023-01-30T07:13:08;96500;;;-1.3;77
68891;BME280;55932;48.702;8.884;2023-01-30T07:15:38;96520;;;-1.1;77
68891;BME280;55932;48.702;8.884;2023-01-30T07:18:21;96520;;;-0.9;77
68891;BME280;55932;48.702;8.884;2023-01-30T07:20:52;96530;;;-0.8;77
68891;BME280;55932;48.702;8.884;2023-01-30T07:25:46;96540;;;-0.5;77
68891;BME280;55932;48.702;8.884;2023-01-30T07:28:17;96550;;;-0.4;76.5
68891;BME280;55932;48.702;8.884;2023-01-30T07:30:48;96550;;;-0.4;76.5
68891;BME280;55932;48.702;8.884;2023-01-30T07:35:55;96550;;;-0.4;77
68891;BME280;55932;48.702;8.884;2023-01-30T07:41:03;96550;;;-0.3;76.5
68891;BME280;55932;48.702;8.884;2023-01-30T07:43:26;96550;;;-0.3;76.5
68891;BME280;55932;48.702;8.884;2023-01-30T07:45:49;96530;;;-0.2;76.5
68891;BME280;55932;48.702;8.884;2023-01-30T07:48:20;96540;;;-0.1;76.5
68891;BME280;55932;48.702;8.884;2023-01-30T07:50:53;96550;;;0;76.5
68891;BME280;55932;48.702;8.884;2023-01-30T07:53:22;96560;;;0;76.5
68891;BME280;55932;48.702;8.884;2023-01-30T07:55:46;96560;;;-0.1;76.5
68891;BME280;55932;48.702;8.884;2023-01-30T07:58:17;96550;;;-0.1;76.5
68891;BME280;55932;48.702;8.884;2023-01-30T08:05:49;96530;;;0;76.5
68891;BME280;55932;48.702;8.884;2023-01-30T08:08:20;96530;;;0;76.5
68891;BME280;55932;48.702;8.884;2023-01-30T08:10:51;96530;;;0;76.5
68891;BME280;55932;48.702;8.884;2023-01-30T08:13:22;96550;;;0;76.5
68891;BME280;55932;48.702;8.884;2023-01-30T08:15:59;96560;;;0;76.5
68891;BME280;55932;48.702;8.884;2023-01-30T08:18:31;96560;;;0;76.5
68891;BME280;55932;48.702;8.884;2023-01-30T08:23:25;96580;;;0.1;76.5
68891;BME280;55932;48.702;8.884;2023-01-30T08:33:28;96550;;;0.4;76
68891;BME280;55932;48.702;8.884;2023-01-30T08:35:59;96550;;;0.3;76
68891;BME280;55932;48.702;8.884;2023-01-30T08:38:30;96540;;;0.4;76
68891;BME280;55932;48.702;8.884;2023-01-30T08:41:03;96540;;;0.3;76.5
68891;BME280;55932;48.702;8.884;2023-01-30T08:43:58;96530;;;0.4;76.5
68891;BME280;55932;48.702;8.884;2023-01-30T08:46:15;96540;;;0.3;76.5
68891;BME280;55932;48.702;8.884;2023-01-30T08:53:40;96520;;;1.9;75.5
68891;BME280;55932;48.702;8.884;2023-01-30T08:56:10;96510;;;2.3;74
68891;BME280;55932;48.702;8.884;2023-01-30T08:58:34;96520;;;3.7;74
68891;BME280;55932;48.702;8.884;2023-01-30T09:06:07;96500;;;6.7;69
68891;BME280;55932;48.702;8.884;2023-01-30T09:08:37;96470;;;6.8;67.5
68891;BME280;55932;48.702;8.884;2023-01-30T09:11:08;96480;;;6.9;68.5
68891;BME280;55932;48.702;8.884;2023-01-30T09:13:39;96470;;;7.1;67.5
68891;BME280;55932;48.702;8.884;2023-01-30T09:16:16;96470;;;6.9;68
68891;BME280;55932;48.702;8.884;2023-01-30T09:18:47;96470;;;7.2;67
68891;BME280;55932;48.702;8.884;2023-01-30T09:21:18;96460;;;7.1;67.5
68891;BME280;55932;48.702;8.884;2023-01-30T09:23:56;96470;;;6.9;67.5
68891;BME280;55932;48.702;8.884;2023-01-30T09:26:20;96470;;;7.7;66.5
68891;BME280;55932;48.702;8.884;2023-01-30T09:33:46;96480;;;5.6;70
68891;BME280;55932;48.702;8.884;2023-01-30T09:36:17;96480;;;4.2;72.5
68891;BME280;55932;48.702;8.884;2023-01-30T09:38:48;96480;;;3.4;73.5
68891;BME280;55932;48.702;8.884;2023-01-30T09:41:27;96480;;;3;74.5
68891;BME280;55932;48.702;8.884;2023-01-30T09:46:22;96490;;;2.6;76
68891;BME280;55932;48.702;8.884;2023-01-30T09:48:54;96490;;;2.6;76
68891;BME280;55932;48.702;8.884;2023-01-30T09:51:24;96500;;;2.6;76.5
68891;BME280;55932;48.702;8.884;2023-01-30T09:53:58;96480;;;2.7;76.5
68891;BME280;55932;48.702;8.884;2023-01-30T10:01:27;96460;;;2.9;76.5
68891;BME280;55932;48.702;8.884;2023-01-30T10:04:00;96460;;;2.8;76.5
68891;BME280;55932;48.702;8.884;2023-01-30T10:11:38;96420;;;2.9;77
68891;BME280;55932;48.702;8.884;2023-01-30T10:16:42;96420;;;3.6;76
68891;BME280;55932;48.702;8.884;2023-01-30T10:21:49;96430;;;4;75.5
68891;BME280;55932;48.702;8.884;2023-01-30T10:24:20;96420;;;4;76
68891;BME280;55932;48.702;8.884;2023-01-30T10:29:12;96400;;;3.9;76
68891;BME280;55932;48.702;8.884;2023-01-30T10:31:41;96410;;;3.8;76
68891;BME280;55932;48.702;8.884;2023-01-30T10:34:20;96400;;;3.9;76
68891;BME280;55932;48.702;8.884;2023-01-30T10:36:52;96410;;;3.8;76
68891;BME280;55932;48.702;8.884;2023-01-30T10:42:07;96410;;;3.4;76
68891;BME280;55932;48.702;8.884;2023-01-30T10:44:19;96400;;;3.3;76.5
68891;BME280;55932;48.702;8.884;2023-01-30T10:49:17;96400;;;3.3;76.5
68891;BME280;55932;48.702;8.884;2023-01-30T10:51:47;96400;;;3.3;76
68891;BME280;55932;48.702;8.884;2023-01-30T10:54:18;96400;;;3.2;76
68891;BME280;55932;48.702;8.884;2023-01-30T10:56:43;96390;;;3.1;76
68891;BME280;55932;48.702;8.884;2023-01-30T11:01:42;96400;;;2.9;76.5
68891;BME280;55932;48.702;8.884;2023-01-30T11:04:20;96400;;;2.8;76.5
68891;BME280;55932;48.702;8.884;2023-01-30T11:06:43;96400;;;2.7;76.5
68891;BME280;55932;48.702;8.884;2023-01-30T11:09:13;96410;;;2.7;76.5
68891;BME280;55932;48.702;8.884;2023-01-30T11:11:48;96400;;;2.8;76.5
68891;BME280;55932;48.702;8.884;2023-01-30T11:14:14;96400;;;2.9;76.5
68891;BME280;55932;48.702;8.884;2023-01-30T11:16:49;96390;;;3;76.5
68891;BME280;55932;48.702;8.884;2023-01-30T11:21:47;96390;;;3;76
68891;BME280;55932;48.702;8.884;2023-01-30T11:24:19;96380;;;3;76.5
68891;BME280;55932;48.702;8.884;2023-01-30T11:26:49;96380;;;3;76.5
68891;BME280;55932;48.702;8.884;2023-01-30T11:34:21;96390;;;2.7;76.5
68891;BME280;55932;48.702;8.884;2023-01-30T11:39:28;96380;;;2.6;77
68891;BME280;55932;48.702;8.884;2023-01-30T11:42:00;96380;;;2.5;77
68891;BME280;55932;48.702;8.884;2023-01-30T11:44:33;96380;;;2.6;77
68891;BME280;55932;48.702;8.884;2023-01-30T11:49:24;96370;;;2.7;77
68891;BME280;55932;48.702;8.884;2023-01-30T11:51:55;96370;;;2.8;77
68891;BME280;55932;48.702;8.884;2023-01-30T11:54:29;96380;;;2.7;76.5
68891;BME280;55932;48.702;8.884;2023-01-30T12:02:00;96380;;;2.3;77
68891;BME280;55932;48.702;8.884;2023-01-30T12:04:30;96390;;;2.3;77
68891;BME280;55932;48.702;8.884;2023-01-30T12:07:15;96390;;;2.3;77
68891;BME280;55932;48.702;8.884;2023-01-30T12:09:37;96370;;;2.3;77
68891;BME280;55932;48.702;8.884;2023-01-30T12:12:26;96380;;;2.4;77
68891;BME280;55932;48.702;8.884;2023-01-30T12:14:40;96370;;;2.5;77
68891;BME280;55932;48.702;8.884;2023-01-30T12:22:10;96370;;;2.9;76
68891;BME280;55932;48.702;8.884;2023-01-30T12:24:38;96360;;;2.9;76
68891;BME280;55932;48.702;8.884;2023-01-30T12:27:24;96360;;;2.8;76
68891;BME280;55932;48.702;8.884;2023-01-30T12:29:40;96370;;;2.8;76.5
68891;BME280;55932;48.702;8.884;2023-01-30T12:32:12;96370;;;3.2;76
68891;BME280;55932;48.702;8.884;2023-01-30T12:34:39;96370;;;3.5;75.5
68891;BME280;55932;48.702;8.884;2023-01-30T12:37:18;96360;;;3.4;75.5
68891;BME280;55932;48.702;8.884;2023-01-30T12:44:53;96370;;;3.5;76
68891;BME280;55932;48.702;8.884;2023-01-30T12:50:02;96370;;;3.7;75.5
68891;BME280;55932;48.702;8.884;2023-01-30T12:55:47;96380;;;3.4;76
68891;BME280;55932;48.702;8.884;2023-01-30T12:57:46;96390;;;3.6;76
68891;BME280;55932;48.702;8.884;2023-01-30T13:03:04;96400;;;3.8;75.5
68891;BME280;55932;48.702;8.884;2023-01-30T13:07:27;96410;;;3.5;76
68891;BME280;55932;48.702;8.884;2023-01-30T13:09:58;96410;;;3.1;76
68891;BME280;55932;48.702;8.884;2023-01-30T13:12:31;96430;;;2.8;76.5
68891;BME280;55932;48.702;8.884;2023-01-30T13:15:14;96420;;;2.7;76.5
68891;BME280;55932;48.702;8.884;2023-01-30T13:19:56;96430;;;2.5;76.5
68891;BME280;55932;48.702;8.884;2023-01-30T13:22:24;96430;;;2.3;76.5
68891;BME280;55932;48.702;8.884;2023-01-30T13:25:11;96430;;;2.2;76.5
68891;BME280;55932;48.702;8.884;2023-01-30T13:27:24;96430;;;2.2;77
68891;BME280;55932;48.702;8.884;2023-01-30T13:29:54;96430;;;2.2;76.5
68891;BME280;55932;48.702;8.884;2023-01-30T13:32:29;96430;;;2.3;76.5
68891;BME280;55932;48.702;8.884;2023-01-30T13:34:56;96430;;;2.4;76.5
68891;BME280;55932;48.702;8.884;2023-01-30T13:37:27;96430;;;2.7;76.5
68891;BME280;55932;48.702;8.884;2023-01-30T13:44:59;96450;;;2.5;76.5
68891;BME280;55932;48.702;8.884;2023-01-30T13:52:46;96460;;;2.5;76.5
68891;BME280;55932;48.702;8.884;2023-01-30T13:55:48;96470;;;2.4;76.5
68891;BME280;55932;48.702;8.884;2023-01-30T13:57:46;96460;;;2.3;76.5
68891;BME280;55932;48.702;8.884;2023-01-30T14:00:40;96470;;;2.3;76.5
68891;BME280;55932;48.702;8.884;2023-01-30T14:03:13;96480;;;2.2;76.5
68891;BME280;55932;48.702;8.884;2023-01-30T14:05:10;96480;;;2.2;76.5
68891;BME280;55932;48.702;8.884;2023-01-30T14:07:41;96480;;;2.3;76.5
68891;BME280;55932;48.702;8.884;2023-01-30T14:10:13;96490;;;2.2;77
68891;BME280;55932;48.702;8.884;2023-01-30T14:30:34;96510;;;2;77.5
68891;BME280;55932;48.702;8.884;2023-01-30T14:32:56;96520;;;2;77.5
68891;BME280;55932;48.702;8.884;2023-01-30T14:40:29;96540;;;2;77.5
68891;BME280;55932;48.702;8.884;2023-01-30T14:45:41;96550;;;1.9;77.5
68891;BME280;55932;48.702;8.884;2023-01-30T14:50:31;96560;;;1.9;77.5
68891;BME280;55932;48.702;8.884;2023-01-30T14:53:02;96560;;;1.9;77.5
68891;BME280;55932;48.702;8.884;2023-01-30T14:57:56;96560;;;2;77.5
68891;BME280;55932;48.702;8.884;2023-01-30T15:00:27;96550;;;2.1;77.5
68891;BME280;55932;48.702;8.884;2023-01-30T15:02:58;96560;;;2.1;77
68891;BME280;55932;48.702;8.884;2023-01-30T15:10:29;96550;;;2.2;76.5
68891;BME280;55932;48.702;8.884;2023-01-30T15:13:59;96560;;;2.1;76.5
68891;BME280;55932;48.702;8.884;2023-01-30T15:15:26;96570;;;2.1;76.5
68891;BME280;55932;48.702;8.884;2023-01-30T15:20:36;96560;;;2.2;76.5
68891;BME280;55932;48.702;8.884;2023-01-30T15:25:39;96560;;;2.2;76.5
68891;BME280;55932;48.702;8.884;2023-01-30T15:28:06;96560;;;2.2;76.5
68891;BME280;55932;48.702;8.884;2023-01-30T15:30:53;96560;;;2.2;76.5
68891;BME280;55932;48.702;8.884;2023-01-30T15:35:30;96580;;;2.6;76
68891;BME280;55932;48.702;8.884;2023-01-30T15:43:10;96590;;;2.4;76
68891;BME280;55932;48.702;8.884;2023-01-30T15:48:12;96600;;;2.4;76
68891;BME280;55932;48.702;8.884;2023-01-30T15:53:12;96600;;;2.4;76
68891;BME280;55932;48.702;8.884;2023-01-30T15:55:48;96600;;;2.4;76
68891;BME280;55932;48.702;8.884;2023-01-30T15:58:16;96600;;;2.2;76
68891;BME280;55932;48.702;8.884;2023-01-30T16:00:39;96600;;;2.2;76
68891;BME280;55932;48.702;8.884;2023-01-30T16:05:47;96600;;;2.3;76
68891;BME280;55932;48.702;8.884;2023-01-30T16:08:17;96610;;;2.3;76
68891;BME280;55932;48.702;8.884;2023-01-30T16:10:43;96610;;;2.4;76
68891;BME280;55932;48.702;8.884;2023-01-30T16:13:11;96610;;;2.4;76
68891;BME280;55932;48.702;8.884;2023-01-30T16:16:14;96610;;;2.3;76
68891;BME280;55932;48.702;8.884;2023-01-30T16:18:22;96600;;;2.2;76
68891;BME280;55932;48.702;8.884;2023-01-30T16:20:45;96610;;;2.1;76
68891;BME280;55932;48.702;8.884;2023-01-30T16:23:18;96610;;;1.9;76.5
68891;BME280;55932;48.702;8.884;2023-01-30T16:25:52;96620;;;1.7;76.5
68891;BME280;55932;48.702;8.884;2023-01-30T16:28:23;96630;;;1.7;76.5
68891;BME280;55932;48.702;8.884;2023-01-30T16:31:02;96640;;;1.6;76.5
68891;BME280;55932;48.702;8.884;2023-01-30T16:33:31;96650;;;1.6;76.5
68891;BME280;55932;48.702;8.884;2023-01-30T16:38:46;96660;;;1.6;76.5
68891;BME280;55932;48.702;8.884;2023-01-30T16:43:33;96660;;;1.7;76.5
68891;BME280;55932;48.702;8.884;2023-01-30T16:48:33;96670;;;1.7;76.5
68891;BME280;55932;48.702;8.884;2023-01-30T16:53:32;96660;;;1.7;76.5
68891;BME280;55932;48.702;8.884;2023-01-30T16:56:00;96670;;;1.8;76
68891;BME280;55932;48.702;8.884;2023-01-30T16:58:37;96670;;;1.7;76.5
68891;BME280;55932;48.702;8.884;2023-01-30T17:06:09;96670;;;2.1;76
68891;BME280;55932;48.702;8.884;2023-01-30T17:08:48;96660;;;2.1;76
68891;BME280;55932;48.702;8.884;2023-01-30T17:13:33;96670;;;1.8;76.5
68891;BME280;55932;48.702;8.884;2023-01-30T17:16:34;96670;;;1.7;76.5
68891;BME280;55932;48.702;8.884;2023-01-30T17:18:34;96680;;;1.8;76.5
68891;BME280;55932;48.702;8.884;2023-01-30T17:25:59;96700;;;1.6;76.5
68891;BME280;55932;48.702;8.884;2023-01-30T17:28:30;96690;;;1.7;76.5
68891;BME280;55932;48.702;8.884;2023-01-30T17:31:01;96700;;;1.7;76.5
68891;BME280;55932;48.702;8.884;2023-01-30T17:33:32;96710;;;1.6;76.5
68891;BME280;55932;48.702;8.884;2023-01-30T17:36:03;96710;;;1.6;76.5
68891;BME280;55932;48.702;8.884;2023-01-30T17:38:34;96710;;;1.6;76.5
68891;BME280;55932;48.702;8.884;2023-01-30T17:41:07;96720;;;1.7;76.5
68891;BME280;55932;48.702;8.884;2023-01-30T17:43:35;96730;;;1.7;76.5
68891;BME280;55932;48.702;8.884;2023-01-30T17:46:06;96730;;;1.8;76.5
68891;BME280;55932;48.702;8.884;2023-01-30T17:53:38;96740;;;1.8;76.5
68891;BME280;55932;48.702;8.884;2023-01-30T17:58:45;96740;;;2;76
68891;BME280;55932;48.702;8.884;2023-01-30T18:01:17;96740;;;2.1;76
68891;BME280;55932;48.702;8.884;2023-01-30T18:03:48;96750;;;2;76.5
68891;BME280;55932;48.702;8.884;2023-01-30T18:06:15;96760;;;1.9;76.5
68891;BME280;55932;48.702;8.884;2023-01-30T18:08:43;96760;;;1.8;76.5
68891;BME280;55932;48.702;8.884;2023-01-30T18:11:13;96770;;;1.7;76.5
68891;BME280;55932;48.702;8.884;2023-01-30T18:13:44;96760;;;1.6;76.5
68891;BME280;55932;48.702;8.884;2023-01-30T18:23:48;96770;;;1.8;76.5
68891;BME280;55932;48.702;8.884;2023-01-30T18:26:18;96750;;;1.9;76.5
68891;BME280;55932;48.702;8.884;2023-01-30T18:28:49;96760;;;1.8;76.5
68891;BME280;55932;48.702;8.884;2023-01-30T18:31:20;96760;;;1.8;76.5
68891;BME280;55932;48.702;8.884;2023-01-30T18:33:51;96760;;;1.7;76.5
68891;BME280;55932;48.702;8.884;2023-01-30T18:36:21;96770;;;1.7;76.5
68891;BME280;55932;48.702;8.884;2023-01-30T18:38:52;96780;;;1.7;76.5
68891;BME280;55932;48.702;8.884;2023-01-30T18:41:23;96780;;;1.6;76.5
68891;BME280;55932;48.702;8.884;2023-01-30T18:43:54;96790;;;1.6;76.5
68891;BME280;55932;48.702;8.884;2023-01-30T18:59:04;96810;;;1.4;76.5
68891;BME280;55932;48.702;8.884;2023-01-30T19:01:36;96810;;;1.4;76.5
68891;BME280;55932;48.702;8.884;2023-01-30T19:04:12;96810;;;1.3;76.5
68891;BME280;55932;48.702;8.884;2023-01-30T19:06:43;96820;;;1.3;76.5
68891;BME280;55932;48.702;8.884;2023-01-30T19:11:38;96830;;;1.6;76.5
68891;BME280;55932;48.702;8.884;2023-01-30T19:14:08;96830;;;1.4;76.5
68891;BME280;55932;48.702;8.884;2023-01-30T19:19:10;96840;;;1.4;77
68891;BME280;55932;48.702;8.884;2023-01-30T19:24:17;96840;;;1.3;77
68891;BME280;55932;48.702;8.884;2023-01-30T19:26:47;96850;;;1.3;77
68891;BME280;55932;48.702;8.884;2023-01-30T19:29:18;96850;;;1.4;76.5
68891;BME280;55932;48.702;8.884;2023-01-30T19:31:48;96850;;;1.4;76.5
68891;BME280;55932;48.702;8.884;2023-01-30T19:34:12;96860;;;1.5;76.5
68891;BME280;55932;48.702;8.884;2023-01-30T19:36:43;96850;;;1.5;76.5
68891;BME280;55932;48.702;8.884;2023-01-30T19:39:14;96850;;;1.5;76.5
68891;BME280;55932;48.702;8.884;2023-01-30T19:41:51;96860;;;1.5;76.5
68891;BME280;55932;48.702;8.884;2023-01-30T19:46:59;96870;;;2;76
68891;BME280;55932;48.702;8.884;2023-01-30T19:49:23;96870;;;2;76
68891;BME280;55932;48.702;8.884;2023-01-30T19:54:17;96870;;;2.1;76
68891;BME280;55932;48.702;8.884;2023-01-30T19:56:48;96870;;;2.1;76
68891;BME280;55932;48.702;8.884;2023-01-30T19:59:19;96870;;;2.3;76
68891;BME280;55932;48.702;8.884;2023-01-30T20:01:50;96870;;;2.3;76
68891;BME280;55932;48.702;8.884;2023-01-30T20:04:21;96880;;;2.4;76
68891;BME280;55932;48.702;8.884;2023-01-30T20:11:48;96890;;;2.5;76
68891;BME280;55932;48.702;8.884;2023-01-30T20:14:18;96900;;;2.5;76
68891;BME280;55932;48.702;8.884;2023-01-30T20:16:49;96890;;;2.5;76
68891;BME280;55932;48.702;8.884;2023-01-30T20:19:20;96890;;;2.5;76
68891;BME280;55932;48.702;8.884;2023-01-30T20:21:52;96880;;;2.5;76
68891;BME280;55932;48.702;8.884;2023-01-30T20:31:59;96900;;;2.5;76
68891;BME280;55932;48.702;8.884;2023-01-30T20:34:30;96900;;;2.5;76
68891;BME280;55932;48.702;8.884;2023-01-30T20:37:01;96910;;;2.5;76
68891;BME280;55932;48.702;8.884;2023-01-30T20:42:08;96900;;;2.5;76
68891;BME280;55932;48.702;8.884;2023-01-30T20:44:45;96910;;;2.5;76
68891;BME280;55932;48.702;8.884;2023-01-30T20:47:03;96920;;;2.5;76
68891;BME280;55932;48.702;8.884;2023-01-30T20:49:33;96920;;;2.5;76
68891;BME280;55932;48.702;8.884;2023-01-30T20:52:05;96930;;;2.5;76